Time;durP1;ratioP1;P1;durP2;ratioP2;P2;SDS_P1;SDS_P2;PMS_P1;PMS_P2;Temp;Humidity;BMP_temperature;BMP_pressure;BME280_temperature;BME280_humidity;BME280_pressure;Samples;Min_cycle;Max_cycle;Signal;HPM_P1;HPM_P2
2022/01/06 00:00:32;;;;;;;17.93;2.43;;;;;;;;;;5043195;28;20259;-68
2022/01/06 00:02:58;;;;;;;15.80;1.93;;;;;;;;;;5035645;28;20193;-69
2022/01/06 00:05:23;;;;;;;20.23;2.30;;;;;;;;;;5041940;28;20186;-68
2022/01/06 00:07:49;;;;;;;14.50;1.87;;;;;;;;;;5041223;28;20261;-69
2022/01/06 00:10:15;;;;;;;12.77;2.13;;;;;;;;;;5045843;28;20544;-69
2022/01/06 00:12:50;;;;;;;8.67;1.97;;;;;;;;;;5040127;28;20271;-67
2022/01/06 00:15:29;;;;;;;16.73;1.60;;;;;;;;;;5043403;28;20272;-68
2022/01/06 00:25:52;;;;;;;8.40;1.20;;;;;;;;;;5042243;28;20262;-69
2022/01/06 00:28:18;;;;;;;11.97;1.20;;;;;;;;;;5041724;28;20181;-68
2022/01/06 00:30:45;;;;;;;10.13;1.27;;;;;;;;;;5045799;28;20201;-68
2022/01/06 00:33:11;;;;;;;7.10;1.10;;;;;;;;;;5048131;28;20280;-68
2022/01/06 00:35:37;;;;;;;8.60;1.17;;;;;;;;;;5044587;28;20754;-68
2022/01/06 00:38:06;;;;;;;11.93;1.30;;;;;;;;;;5043874;28;20251;-68
2022/01/06 00:40:32;;;;;;;7.33;0.97;;;;;;;;;;5048032;28;20182;-69
2022/01/06 00:42:57;;;;;;;8.33;2.10;;;;;;;;;;5043815;28;20537;-69
2022/01/06 00:45:22;;;;;;;7.53;1.07;;;;;;;;;;5045275;28;20182;-68
2022/01/06 00:47:48;;;;;;;11.63;1.33;;;;;;;;;;5046129;28;20201;-68
2022/01/06 00:50:13;;;;;;;10.00;0.83;;;;;;;;;;5043749;28;20176;-68
2022/01/06 00:52:38;;;;;;;4.43;0.80;;;;;;;;;;5048728;28;20190;-69
2022/01/06 00:55:05;;;;;;;7.00;0.70;;;;;;;;;;5045045;28;20216;-69
2022/01/06 00:57:30;;;;;;;6.33;0.77;;;;;;;;;;5045650;28;20229;-69
2022/01/06 00:59:55;;;;;;;4.57;0.97;;;;;;;;;;5048331;28;20213;-68
2022/01/06 01:02:21;;;;;;;10.97;1.40;;;;;;;;;;5043985;28;20181;-69
2022/01/06 01:04:47;;;;;;;10.47;1.50;;;;;;;;;;5046410;28;20212;-69
2022/01/06 01:07:13;;;;;;;8.63;1.50;;;;;;;;;;5044898;28;20185;-69
2022/01/06 01:09:38;;;;;;;9.23;1.00;;;;;;;;;;5048598;28;20197;-68
2022/01/06 01:12:04;;;;;;;7.87;1.20;;;;;;;;;;5045757;28;20185;-69
2022/01/06 01:14:33;;;;;;;7.33;1.03;;;;;;;;;;5048971;28;20190;-69
2022/01/06 01:17:01;;;;;;;9.17;1.07;;;;;;;;;;5043172;28;20180;-68
2022/01/06 01:19:29;;;;;;;13.00;1.30;;;;;;;;;;5046602;28;20201;-68
2022/01/06 01:21:54;;;;;;;13.13;1.93;;;;;;;;;;5042845;28;20185;-68
2022/01/06 01:24:21;;;;;;;12.23;1.60;;;;;;;;;;5047741;28;21303;-69
2022/01/06 01:26:46;;;;;;;15.93;2.10;;;;;;;;;;5044063;28;20170;-69
2022/01/06 01:29:16;;;;;;;13.23;1.57;;;;;;;;;;5044410;28;20208;-69
2022/01/06 01:31:47;;;;;;;16.80;2.10;;;;;;;;;;5046873;28;20197;-68
2022/01/06 01:34:15;;;;;;;12.37;1.70;;;;;;;;;;5045359;28;20733;-69
2022/01/06 01:36:42;;;;;;;14.77;1.90;;;;;;;;;;5046837;28;20282;-69
2022/01/06 01:39:09;;;;;;;28.67;3.57;;;;;;;;;;5045255;28;20255;-69
2022/01/06 01:41:34;;;;;;;22.93;2.47;;;;;;;;;;5047167;28;20200;-69
2022/01/06 01:44:00;;;;;;;12.13;2.03;;;;;;;;;;5042480;28;20185;-69
2022/01/06 01:46:30;;;;;;;15.30;2.23;;;;;;;;;;5045137;28;20185;-69
2022/01/06 01:49:26;;;;;;;18.00;1.90;;;;;;;;;;5040621;28;20182;-69
2022/01/06 01:51:52;;;;;;;17.50;1.73;;;;;;;;;;5040363;28;20197;-69
2022/01/06 01:54:18;;;;;;;17.00;1.70;;;;;;;;;;5044441;28;20201;-69
2022/01/06 01:56:44;;;;;;;19.40;2.63;;;;;;;;;;5043265;28;20230;-69
2022/01/06 01:59:10;;;;;;;18.70;1.93;;;;;;;;;;5024796;28;20213;-70
2022/01/06 02:01:36;;;;;;;18.90;2.27;;;;;;;;;;5045581;28;20185;-69
2022/01/06 02:04:01;;;;;;;19.00;2.07;;;;;;;;;;5029277;28;20185;-69
2022/01/06 02:06:27;;;;;;;13.50;1.80;;;;;;;;;;5045552;28;20182;-68
2022/01/06 02:08:54;;;;;;;17.87;1.80;;;;;;;;;;5043140;28;20181;-68
2022/01/06 02:11:20;;;;;;;19.43;2.20;;;;;;;;;;5042982;28;20633;-69
2022/01/06 02:13:53;;;;;;;15.83;2.20;;;;;;;;;;5039984;28;20319;-69
2022/01/06 02:16:24;;;;;;;23.63;2.80;;;;;;;;;;5042313;28;20774;-69
2022/01/06 02:18:50;;;;;;;11.97;1.80;;;;;;;;;;5045143;28;20212;-69
2022/01/06 02:21:16;;;;;;;15.13;2.07;;;;;;;;;;5042649;28;20182;-69
2022/01/06 02:23:42;;;;;;;22.27;2.20;;;;;;;;;;5043844;28;20236;-69
2022/01/06 02:26:07;;;;;;;14.27;2.27;;;;;;;;;;5045939;28;20177;-68
2022/01/06 02:28:33;;;;;;;28.80;3.43;;;;;;;;;;5040899;28;20201;-68
2022/01/06 02:30:58;;;;;;;15.73;2.47;;;;;;;;;;5044663;28;20793;-68
2022/01/06 02:33:25;;;;;;;18.13;2.50;;;;;;;;;;5043128;28;20679;-68
2022/01/06 02:35:51;;;;;;;19.50;2.20;;;;;;;;;;5042957;28;20203;-69
2022/01/06 02:38:17;;;;;;;19.30;2.00;;;;;;;;;;5046070;28;20193;-68
2022/01/06 02:40:43;;;;;;;22.90;2.17;;;;;;;;;;5044048;28;20189;-68
2022/01/06 02:43:09;;;;;;;12.00;2.40;;;;;;;;;;5044975;28;20222;-69
2022/01/06 02:45:36;;;;;;;21.10;2.33;;;;;;;;;;5048631;28;20260;-68
2022/01/06 02:48:08;;;;;;;21.00;3.47;;;;;;;;;;5047477;28;20198;-68
2022/01/06 02:50:35;;;;;;;12.40;1.93;;;;;;;;;;5047116;28;20222;-68
2022/01/06 02:53:01;;;;;;;12.67;2.07;;;;;;;;;;5046773;28;20193;-69
2022/01/06 02:55:26;;;;;;;22.20;2.30;;;;;;;;;;5047815;28;20284;-69
2022/01/06 02:57:51;;;;;;;18.17;1.67;;;;;;;;;;5044311;28;20233;-69
2022/01/06 03:00:18;;;;;;;14.13;1.77;;;;;;;;;;5050344;28;20612;-69
2022/01/06 03:02:46;;;;;;;14.63;1.47;;;;;;;;;;5046728;28;20270;-68
2022/01/06 03:05:12;;;;;;;9.60;1.30;;;;;;;;;;5045004;28;20189;-68
2022/01/06 03:07:40;;;;;;;15.27;2.10;;;;;;;;;;5046028;28;20562;-68
2022/01/06 03:10:09;;;;;;;26.20;3.17;;;;;;;;;;5044865;28;20193;-68
2022/01/06 03:12:41;;;;;;;15.60;1.67;;;;;;;;;;5044362;28;20182;-68
2022/01/06 03:15:15;;;;;;;15.90;2.10;;;;;;;;;;5047458;28;20185;-69
2022/01/06 03:17:43;;;;;;;15.60;1.63;;;;;;;;;;5048010;28;20181;-69
2022/01/06 03:20:10;;;;;;;17.07;1.70;;;;;;;;;;5046090;28;20205;-68
2022/01/06 03:22:36;;;;;;;14.30;2.00;;;;;;;;;;5048713;28;20197;-69
2022/01/06 03:25:03;;;;;;;16.03;2.43;;;;;;;;;;5046500;28;20212;-69
2022/01/06 03:27:29;;;;;;;13.47;1.67;;;;;;;;;;5046367;28;20607;-69
2022/01/06 03:29:54;;;;;;;17.97;2.30;;;;;;;;;;5044561;28;20265;-69
2022/01/06 03:32:20;;;;;;;13.17;2.17;;;;;;;;;;5047637;28;20272;-69
2022/01/06 03:34:46;;;;;;;22.73;2.10;;;;;;;;;;5043351;28;20186;-69
2022/01/06 03:37:12;;;;;;;17.97;1.87;;;;;;;;;;5048835;28;20236;-68
2022/01/06 03:39:39;;;;;;;12.37;1.60;;;;;;;;;;5047306;28;20197;-68
2022/01/06 03:42:05;;;;;;;12.30;1.80;;;;;;;;;;5047132;28;20193;-68
2022/01/06 03:44:30;;;;;;;14.53;1.80;;;;;;;;;;5046078;28;20181;-68
2022/01/06 03:46:56;;;;;;;14.13;1.70;;;;;;;;;;5048383;28;20185;-68
2022/01/06 03:49:22;;;;;;;19.37;2.40;;;;;;;;;;5045276;28;20690;-68
2022/01/06 03:51:47;;;;;;;10.67;1.70;;;;;;;;;;5049901;28;20251;-68
2022/01/06 03:54:13;;;;;;;14.57;2.20;;;;;;;;;;5045358;28;20649;-68
2022/01/06 03:56:39;;;;;;;10.33;1.47;;;;;;;;;;5047864;28;20241;-68
2022/01/06 03:59:05;;;;;;;10.77;1.33;;;;;;;;;;5043666;28;20217;-69
2022/01/06 04:01:30;;;;;;;26.23;3.10;;;;;;;;;;5046810;28;20189;-68
2022/01/06 04:03:56;;;;;;;15.17;1.80;;;;;;;;;;5042180;28;20216;-68
2022/01/06 04:06:21;;;;;;;19.37;3.07;;;;;;;;;;5044923;28;20396;-68
2022/01/06 04:08:46;;;;;;;17.67;1.97;;;;;;;;;;5050972;28;20181;-68
2022/01/06 04:11:12;;;;;;;14.13;2.00;;;;;;;;;;5043428;28;20212;-68
2022/01/06 04:13:37;;;;;;;14.37;2.33;;;;;;;;;;5046984;28;20560;-68
2022/01/06 04:16:07;;;;;;;19.67;2.07;;;;;;;;;;5044794;28;20181;-68
2022/01/06 04:18:32;;;;;;;15.93;1.83;;;;;;;;;;5042354;28;20696;-68
2022/01/06 04:20:58;;;;;;;9.90;1.60;;;;;;;;;;5044047;28;20197;-68
2022/01/06 04:23:23;;;;;;;14.53;1.77;;;;;;;;;;5046304;28;20197;-69
2022/01/06 04:25:48;;;;;;;22.10;3.00;;;;;;;;;;5046212;28;20198;-68
2022/01/06 04:28:14;;;;;;;21.27;2.40;;;;;;;;;;5043429;28;20190;-69
2022/01/06 04:30:39;;;;;;;17.17;2.23;;;;;;;;;;5045499;28;20219;-68
2022/01/06 04:33:04;;;;;;;9.53;2.10;;;;;;;;;;5046460;28;20204;-68
2022/01/06 04:35:30;;;;;;;15.93;2.30;;;;;;;;;;5044205;28;20258;-69
2022/01/06 04:37:55;;;;;;;14.50;1.60;;;;;;;;;;5046593;28;20276;-68
2022/01/06 04:40:21;;;;;;;16.40;2.20;;;;;;;;;;5037521;28;20220;-68
2022/01/06 04:42:46;;;;;;;16.17;1.93;;;;;;;;;;5045846;28;20302;-68
2022/01/06 04:45:11;;;;;;;22.17;3.00;;;;;;;;;;5045399;28;20589;-69
2022/01/06 04:47:37;;;;;;;21.33;2.37;;;;;;;;;;5043686;28;20641;-69
2022/01/06 04:50:03;;;;;;;15.53;1.77;;;;;;;;;;5045438;28;20507;-68
2022/01/06 04:52:29;;;;;;;19.00;2.00;;;;;;;;;;5040322;28;20644;-68
2022/01/06 04:54:54;;;;;;;19.60;2.40;;;;;;;;;;5046202;28;20225;-68
2022/01/06 04:57:19;;;;;;;18.17;2.63;;;;;;;;;;5039382;28;20237;-68
2022/01/06 04:59:44;;;;;;;12.93;1.67;;;;;;;;;;5044638;28;20245;-68
2022/01/06 05:02:10;;;;;;;21.63;2.30;;;;;;;;;;5042215;28;20193;-68
2022/01/06 05:04:35;;;;;;;11.10;1.47;;;;;;;;;;5047491;28;20509;-68
2022/01/06 05:07:00;;;;;;;21.90;2.30;;;;;;;;;;5046362;28;20185;-68
2022/01/06 05:09:26;;;;;;;17.80;2.00;;;;;;;;;;5043764;28;20194;-68
2022/01/06 05:11:51;;;;;;;20.13;1.97;;;;;;;;;;5046926;28;20180;-68
2022/01/06 05:14:17;;;;;;;21.50;2.23;;;;;;;;;;5046704;28;20205;-68
2022/01/06 05:16:42;;;;;;;20.07;2.40;;;;;;;;;;5046284;28;20189;-68
2022/01/06 05:19:07;;;;;;;25.50;3.17;;;;;;;;;;5045128;28;20241;-68
2022/01/06 05:21:33;;;;;;;20.20;2.23;;;;;;;;;;5043849;28;20193;-68
2022/01/06 05:23:59;;;;;;;20.47;2.43;;;;;;;;;;5038563;28;20193;-67
2022/01/06 05:26:24;;;;;;;23.97;2.70;;;;;;;;;;5048297;28;20196;-68
2022/01/06 05:28:50;;;;;;;23.80;2.50;;;;;;;;;;5043528;28;20184;-67
2022/01/06 05:31:15;;;;;;;24.80;3.03;;;;;;;;;;5041809;28;20201;-68
2022/01/06 05:33:41;;;;;;;20.97;2.33;;;;;;;;;;5043189;28;20210;-67
2022/01/06 05:36:06;;;;;;;20.10;2.43;;;;;;;;;;5044322;28;20257;-67
2022/01/06 05:38:32;;;;;;;23.90;2.67;;;;;;;;;;5043755;28;20691;-68
2022/01/06 05:40:57;;;;;;;17.03;2.70;;;;;;;;;;5038363;28;20212;-67
2022/01/06 05:43:23;;;;;;;27.13;2.50;;;;;;;;;;5042950;28;20186;-68
2022/01/06 05:45:51;;;;;;;24.67;2.50;;;;;;;;;;5042245;28;20185;-67
2022/01/06 05:48:17;;;;;;;28.17;2.80;;;;;;;;;;5045386;28;20342;-67
2022/01/06 05:50:43;;;;;;;23.33;2.30;;;;;;;;;;5041706;28;20193;-67
2022/01/06 05:53:09;;;;;;;20.23;2.83;;;;;;;;;;5044981;28;20174;-68
2022/01/06 05:55:34;;;;;;;19.87;2.40;;;;;;;;;;5043015;28;20232;-67
2022/01/06 05:57:59;;;;;;;24.40;2.57;;;;;;;;;;5039672;28;20185;-67
2022/01/06 06:00:25;;;;;;;16.37;2.20;;;;;;;;;;5042560;28;20288;-67
2022/01/06 06:02:50;;;;;;;16.77;2.27;;;;;;;;;;5041861;28;20207;-67
2022/01/06 06:05:16;;;;;;;21.37;2.57;;;;;;;;;;5042806;28;20185;-68
2022/01/06 06:07:41;;;;;;;22.47;2.27;;;;;;;;;;5045220;28;20248;-67
2022/01/06 06:10:07;;;;;;;16.90;2.17;;;;;;;;;;5040192;28;20184;-68
2022/01/06 06:12:32;;;;;;;13.87;2.07;;;;;;;;;;5040699;28;20204;-68
2022/01/06 06:14:58;;;;;;;15.70;2.20;;;;;;;;;;5038297;28;20239;-67
2022/01/06 06:17:23;;;;;;;24.17;2.53;;;;;;;;;;5042509;28;20194;-68
2022/01/06 06:19:48;;;;;;;18.67;2.07;;;;;;;;;;5035645;28;20209;-67
2022/01/06 06:22:14;;;;;;;14.90;2.07;;;;;;;;;;5044373;28;20678;-68
2022/01/06 06:24:39;;;;;;;20.80;2.77;;;;;;;;;;5040455;28;20209;-67
2022/01/06 06:27:06;;;;;;;21.43;2.50;;;;;;;;;;5044720;28;20185;-68
2022/01/06 06:29:31;;;;;;;17.63;2.40;;;;;;;;;;5040232;28;20186;-67
2022/01/06 06:31:57;;;;;;;20.27;2.23;;;;;;;;;;5042716;28;20209;-68
2022/01/06 06:34:22;;;;;;;20.40;3.00;;;;;;;;;;5041202;28;20422;-67
2022/01/06 06:36:47;;;;;;;17.43;3.07;;;;;;;;;;5041488;28;20193;-67
2022/01/06 06:39:13;;;;;;;14.53;2.57;;;;;;;;;;5035540;28;20232;-67
2022/01/06 06:41:38;;;;;;;21.73;2.80;;;;;;;;;;5041255;28;20540;-68
2022/01/06 06:44:04;;;;;;;18.07;2.90;;;;;;;;;;5041501;28;20477;-68
2022/01/06 06:46:29;;;;;;;24.00;3.53;;;;;;;;;;5041445;28;20201;-68
2022/01/06 06:48:55;;;;;;;21.27;2.90;;;;;;;;;;5040643;28;20189;-67
2022/01/06 06:51:20;;;;;;;17.83;2.67;;;;;;;;;;5040835;28;20581;-67
2022/01/06 06:53:46;;;;;;;24.87;2.73;;;;;;;;;;5046361;28;20192;-68
2022/01/06 06:56:11;;;;;;;26.13;2.63;;;;;;;;;;5039646;28;21892;-67
2022/01/06 06:58:36;;;;;;;17.47;2.40;;;;;;;;;;5043021;28;20288;-67
2022/01/06 07:01:02;;;;;;;27.57;3.13;;;;;;;;;;5037358;28;20178;-67
2022/01/06 07:03:27;;;;;;;22.00;3.10;;;;;;;;;;5043710;28;20211;-67
2022/01/06 07:05:53;;;;;;;15.97;2.97;;;;;;;;;;5042889;28;20624;-68
2022/01/06 07:08:18;;;;;;;25.57;2.70;;;;;;;;;;5046746;28;20190;-67
2022/01/06 07:10:44;;;;;;;18.40;2.93;;;;;;;;;;5041315;28;20245;-68
2022/01/06 07:13:09;;;;;;;28.80;4.63;;;;;;;;;;5043325;28;20194;-67
2022/01/06 07:15:38;;;;;;;16.93;2.70;;;;;;;;;;5046584;28;20188;-68
2022/01/06 07:18:03;;;;;;;19.30;3.23;;;;;;;;;;5041931;28;20649;-68
2022/01/06 07:20:28;;;;;;;23.90;3.70;;;;;;;;;;5039406;28;20485;-67
2022/01/06 07:22:54;;;;;;;19.30;2.90;;;;;;;;;;5041665;28;20672;-68
2022/01/06 07:25:19;;;;;;;21.50;2.77;;;;;;;;;;5043083;28;20560;-68
2022/01/06 07:27:44;;;;;;;22.83;2.97;;;;;;;;;;5047314;28;20221;-67
2022/01/06 07:30:10;;;;;;;26.03;3.63;;;;;;;;;;5047120;28;20288;-67
2022/01/06 07:32:43;;;;;;;17.60;3.13;;;;;;;;;;5042808;28;20260;-68
2022/01/06 07:35:09;;;;;;;15.90;3.07;;;;;;;;;;5047854;28;20564;-68
2022/01/06 07:37:34;;;;;;;18.90;2.70;;;;;;;;;;5046697;28;20331;-68
2022/01/06 07:39:59;;;;;;;18.83;2.70;;;;;;;;;;5042455;28;20249;-69
2022/01/06 07:42:25;;;;;;;27.10;3.60;;;;;;;;;;5045975;28;20778;-68
2022/01/06 07:44:50;;;;;;;19.57;3.00;;;;;;;;;;5045969;28;20645;-67
2022/01/06 07:47:15;;;;;;;15.87;2.47;;;;;;;;;;5047485;28;20238;-67
2022/01/06 07:49:41;;;;;;;22.40;2.67;;;;;;;;;;5045213;28;20273;-67
2022/01/06 07:52:06;;;;;;;21.43;3.43;;;;;;;;;;5048008;28;20177;-68
2022/01/06 07:54:32;;;;;;;13.33;3.67;;;;;;;;;;5046485;28;20205;-67
2022/01/06 07:56:57;;;;;;;18.60;2.87;;;;;;;;;;5044500;28;20233;-68
2022/01/06 07:59:22;;;;;;;21.43;3.27;;;;;;;;;;5048125;28;20205;-68
2022/01/06 08:01:48;;;;;;;23.10;3.57;;;;;;;;;;5040191;28;20201;-69
2022/01/06 08:04:13;;;;;;;21.43;4.10;;;;;;;;;;5043569;28;20279;-67
2022/01/06 08:06:38;;;;;;;25.27;3.63;;;;;;;;;;5048795;28;20193;-67
2022/01/06 08:09:04;;;;;;;20.57;3.13;;;;;;;;;;5048702;28;20194;-68
2022/01/06 08:11:29;;;;;;;21.90;2.63;;;;;;;;;;5048554;28;21216;-68
2022/01/06 08:13:54;;;;;;;21.00;3.80;;;;;;;;;;5047004;28;20240;-68
2022/01/06 08:16:20;;;;;;;19.23;2.97;;;;;;;;;;5047855;28;20182;-68
2022/01/06 08:18:45;;;;;;;23.90;3.30;;;;;;;;;;5043490;28;20288;-68
2022/01/06 08:21:10;;;;;;;23.63;3.63;;;;;;;;;;5047247;28;20197;-68
2022/01/06 08:23:36;;;;;;;21.20;3.47;;;;;;;;;;5045979;28;20182;-69
2022/01/06 08:26:01;;;;;;;17.30;3.53;;;;;;;;;;5046359;28;20186;-68
2022/01/06 08:28:26;;;;;;;20.70;3.03;;;;;;;;;;5045682;28;20687;-68
2022/01/06 08:30:52;;;;;;;22.23;3.17;;;;;;;;;;5045851;28;20251;-69
2022/01/06 08:33:17;;;;;;;25.87;3.93;;;;;;;;;;5045196;28;20564;-68
2022/01/06 08:35:43;;;;;;;15.27;3.00;;;;;;;;;;5046155;28;20587;-68
2022/01/06 08:38:08;;;;;;;19.23;2.87;;;;;;;;;;5045437;28;20185;-69
2022/01/06 08:40:33;;;;;;;18.90;2.83;;;;;;;;;;5044173;28;20205;-67
2022/01/06 08:42:59;;;;;;;21.33;3.37;;;;;;;;;;5046556;28;20193;-68
2022/01/06 08:45:25;;;;;;;20.53;3.37;;;;;;;;;;5043092;28;20205;-67
2022/01/06 08:47:50;;;;;;;33.00;3.60;;;;;;;;;;5049565;28;20197;-68
2022/01/06 08:50:16;;;;;;;17.63;3.40;;;;;;;;;;5044100;28;20208;-67
2022/01/06 08:52:42;;;;;;;19.23;3.50;;;;;;;;;;4347724;28;10000717;-69
2022/01/06 08:55:08;;;;;;;22.33;3.30;;;;;;;;;;5039360;28;20191;-68
2022/01/06 08:57:34;;;;;;;21.77;3.07;;;;;;;;;;5046362;28;20688;-68
2022/01/06 09:00:00;;;;;;;22.33;3.70;;;;;;;;;;5041790;28;20205;-68
2022/01/06 09:02:26;;;;;;;16.83;3.13;;;;;;;;;;5045274;28;20846;-69
2022/01/06 09:04:52;;;;;;;17.43;3.23;;;;;;;;;;5042708;28;20197;-68
2022/01/06 09:07:17;;;;;;;27.67;4.73;;;;;;;;;;5040706;28;20709;-69
2022/01/06 09:09:42;;;;;;;27.53;3.77;;;;;;;;;;5037294;28;20211;-68
2022/01/06 09:12:11;;;;;;;26.47;3.90;;;;;;;;;;5038543;28;20196;-69
2022/01/06 09:14:36;;;;;;;25.33;3.37;;;;;;;;;;5041197;28;20177;-68
2022/01/06 09:17:02;;;;;;;20.20;3.50;;;;;;;;;;5041744;28;20670;-70
2022/01/06 09:19:28;;;;;;;22.57;3.57;;;;;;;;;;5045377;28;20216;-68
2022/01/06 09:21:53;;;;;;;22.47;3.60;;;;;;;;;;5034537;28;20606;-68
2022/01/06 09:24:19;;;;;;;26.57;3.60;;;;;;;;;;5035791;28;20196;-68
2022/01/06 09:26:45;;;;;;;23.37;4.37;;;;;;;;;;5043071;28;20190;-68
2022/01/06 09:29:13;;;;;;;21.30;4.00;;;;;;;;;;5042138;28;20200;-68
2022/01/06 09:31:40;;;;;;;29.27;5.33;;;;;;;;;;5038140;28;20209;-68
2022/01/06 09:34:07;;;;;;;23.80;3.80;;;;;;;;;;5042290;28;20941;-68
2022/01/06 09:36:33;;;;;;;22.53;4.17;;;;;;;;;;5041471;28;20217;-68
2022/01/06 09:39:00;;;;;;;19.73;3.97;;;;;;;;;;5042538;28;20251;-68
2022/01/06 09:41:26;;;;;;;25.60;4.50;;;;;;;;;;5042506;28;20181;-68
2022/01/06 09:43:53;;;;;;;16.87;3.27;;;;;;;;;;5046772;28;20207;-69
2022/01/06 09:46:20;;;;;;;21.17;3.40;;;;;;;;;;5043629;28;20527;-69
2022/01/06 09:48:46;;;;;;;16.60;3.00;;;;;;;;;;5040589;28;20189;-68
2022/01/06 09:51:12;;;;;;;16.37;3.33;;;;;;;;;;5043799;28;20189;-68
2022/01/06 09:53:37;;;;;;;16.80;3.63;;;;;;;;;;5043337;28;20273;-68
2022/01/06 09:56:03;;;;;;;27.43;3.90;;;;;;;;;;5045184;28;20751;-68
2022/01/06 09:58:29;;;;;;;22.20;3.27;;;;;;;;;;5043111;28;20186;-69
2022/01/06 10:00:56;;;;;;;22.57;4.23;;;;;;;;;;5044758;28;20197;-68
2022/01/06 10:03:38;;;;;;;18.47;2.40;;;;;;;;;;5040281;28;20185;-67
2022/01/06 10:06:11;;;;;;;13.20;3.13;;;;;;;;;;5042771;28;20201;-68
2022/01/06 10:08:37;;;;;;;18.07;3.53;;;;;;;;;;5045404;28;20185;-68
2022/01/06 10:11:13;;;;;;;21.27;3.83;;;;;;;;;;5045282;28;20736;-68
2022/01/06 10:13:40;;;;;;;19.00;3.40;;;;;;;;;;5046000;28;20264;-68
2022/01/06 10:16:13;;;;;;;22.53;3.33;;;;;;;;;;5042687;28;20261;-68
2022/01/06 10:18:40;;;;;;;20.57;3.40;;;;;;;;;;5043836;28;20197;-68
2022/01/06 10:21:13;;;;;;;24.60;3.60;;;;;;;;;;5044521;28;20221;-68
2022/01/06 10:23:38;;;;;;;14.50;3.07;;;;;;;;;;5043229;28;20201;-68
2022/01/06 10:26:13;;;;;;;16.27;2.63;;;;;;;;;;5040651;28;20540;-68
2022/01/06 10:28:38;;;;;;;15.93;3.07;;;;;;;;;;5042328;28;20193;-69
2022/01/06 10:31:07;;;;;;;21.30;3.33;;;;;;;;;;5043689;28;20217;-71
2022/01/06 10:33:41;;;;;;;20.93;3.20;;;;;;;;;;5042972;28;20683;-68
2022/01/06 10:36:08;;;;;;;18.40;2.73;;;;;;;;;;5040097;28;20227;-68
2022/01/06 10:38:34;;;;;;;27.43;5.00;;;;;;;;;;5042930;28;20197;-68
2022/01/06 10:41:14;;;;;;;22.93;3.13;;;;;;;;;;5042175;28;20268;-69
2022/01/06 10:43:40;;;;;;;21.03;3.53;;;;;;;;;;5043827;28;20205;-69
2022/01/06 10:46:05;;;;;;;18.83;2.67;;;;;;;;;;5045124;28;20307;-68
2022/01/06 10:48:31;;;;;;;21.10;3.03;;;;;;;;;;5044746;28;20279;-68
2022/01/06 10:50:58;;;;;;;23.50;3.43;;;;;;;;;;5042987;28;20197;-69
2022/01/06 10:53:24;;;;;;;17.37;2.50;;;;;;;;;;5041299;28;20277;-69
2022/01/06 10:55:49;;;;;;;21.10;3.63;;;;;;;;;;5046157;28;20203;-69
2022/01/06 10:58:25;;;;;;;18.07;2.97;;;;;;;;;;5042955;28;20269;-68
2022/01/06 11:01:00;;;;;;;19.27;2.50;;;;;;;;;;5047001;28;20679;-69
2022/01/06 11:03:35;;;;;;;15.80;2.80;;;;;;;;;;5045793;28;20197;-69
2022/01/06 11:06:03;;;;;;;9.50;2.73;;;;;;;;;;5050644;28;20186;-69
2022/01/06 11:08:32;;;;;;;18.33;2.53;;;;;;;;;;5047247;28;20189;-68
2022/01/06 11:11:27;;;;;;;14.40;3.40;;;;;;;;;;5045863;28;20251;-68
2022/01/06 11:13:49;;;;;;;14.30;2.60;;;;;;;;;;5049057;28;20208;-68
2022/01/06 11:16:19;;;;;;;16.17;3.03;;;;;;;;;;5049080;28;20703;-68
2022/01/06 11:18:56;;;;;;;19.00;2.90;;;;;;;;;;5049353;28;20244;-69
2022/01/06 11:21:24;;;;;;;21.93;3.57;;;;;;;;;;5040706;28;20185;-68
2022/01/06 11:24:01;;;;;;;13.90;2.53;;;;;;;;;;4346731;28;10000700;-69
2022/01/06 11:26:27;;;;;;;12.40;3.20;;;;;;;;;;5037479;28;20422;-70
2022/01/06 11:29:00;;;;;;;14.30;2.63;;;;;;;;;;5034014;28;20190;-69
2022/01/06 11:31:28;;;;;;;25.40;3.07;;;;;;;;;;5034095;28;20645;-69
2022/01/06 11:33:56;;;;;;;18.67;3.87;;;;;;;;;;5034348;28;20197;-68
2022/01/06 11:36:31;;;;;;;16.10;2.63;;;;;;;;;;5036373;28;20538;-69
2022/01/06 11:39:05;;;;;;;12.13;3.13;;;;;;;;;;5039437;28;20216;-69
2022/01/06 11:41:32;;;;;;;16.03;2.87;;;;;;;;;;5043292;28;20535;-69
2022/01/06 11:43:58;;;;;;;16.87;2.80;;;;;;;;;;5044126;28;20199;-69
2022/01/06 11:46:25;;;;;;;15.40;3.13;;;;;;;;;;5046632;28;20196;-69
2022/01/06 11:48:56;;;;;;;16.00;2.90;;;;;;;;;;5041388;28;20200;-69
2022/01/06 11:51:26;;;;;;;17.03;3.07;;;;;;;;;;5033467;28;20202;-67
2022/01/06 11:53:52;;;;;;;19.43;2.63;;;;;;;;;;5041993;28;20565;-68
2022/01/06 11:56:17;;;;;;;17.07;2.80;;;;;;;;;;5046189;28;20237;-69
2022/01/06 11:58:44;;;;;;;25.33;3.20;;;;;;;;;;5039224;28;20201;-71
2022/01/06 12:01:14;;;;;;;17.87;2.93;;;;;;;;;;5039809;28;20645;-69
2022/01/06 12:03:47;;;;;;;16.57;2.50;;;;;;;;;;5039612;28;20707;-68
2022/01/06 12:06:30;;;;;;;18.20;2.77;;;;;;;;;;5041933;28;20240;-68
2022/01/06 12:08:56;;;;;;;17.00;4.20;;;;;;;;;;5042532;28;20235;-68
2022/01/06 12:11:24;;;;;;;24.77;4.07;;;;;;;;;;5039036;28;20201;-69
2022/01/06 12:13:51;;;;;;;17.50;3.57;;;;;;;;;;5040201;28;20204;-68
2022/01/06 12:16:28;;;;;;;12.57;2.60;;;;;;;;;;5042749;28;20185;-69
2022/01/06 12:18:54;;;;;;;22.37;3.50;;;;;;;;;;5039780;28;20217;-69
2022/01/06 12:21:20;;;;;;;18.33;2.67;;;;;;;;;;5039790;28;20251;-69
2022/01/06 12:23:46;;;;;;;15.83;2.93;;;;;;;;;;5038965;28;20190;-69
2022/01/06 12:26:13;;;;;;;20.20;3.23;;;;;;;;;;5040584;28;20229;-69
2022/01/06 12:28:50;;;;;;;17.23;2.60;;;;;;;;;;5040337;28;20280;-68
2022/01/06 12:31:34;;;;;;;17.83;3.07;;;;;;;;;;5042778;28;20208;-68
2022/01/06 12:34:02;;;;;;;18.53;3.30;;;;;;;;;;5044140;28;20213;-69
2022/01/06 12:36:32;;;;;;;17.37;2.50;;;;;;;;;;5044003;28;20188;-69
2022/01/06 12:39:04;;;;;;;20.63;3.73;;;;;;;;;;5033133;28;20201;-69
2022/01/06 12:41:32;;;;;;;13.80;3.00;;;;;;;;;;5039306;28;20228;-68
2022/01/06 12:43:57;;;;;;;19.87;2.77;;;;;;;;;;5035314;28;20193;-69
2022/01/06 12:46:35;;;;;;;18.03;2.73;;;;;;;;;;5043116;28;20205;-69
2022/01/06 12:49:01;;;;;;;16.43;2.53;;;;;;;;;;5041380;28;20181;-69
2022/01/06 12:51:29;;;;;;;20.67;2.80;;;;;;;;;;5045280;28;20220;-69
2022/01/06 12:54:08;;;;;;;19.93;2.70;;;;;;;;;;5039906;28;20649;-69
2022/01/06 12:56:36;;;;;;;16.77;2.50;;;;;;;;;;5040575;28;20319;-68
2022/01/06 12:59:32;;;;;;;18.73;2.87;;;;;;;;;;5043509;28;20565;-69
2022/01/06 13:01:59;;;;;;;20.77;2.40;;;;;;;;;;5031992;28;21230;-67
2022/01/06 13:04:27;;;;;;;17.67;2.80;;;;;;;;;;5041543;28;20592;-68
2022/01/06 13:06:56;;;;;;;15.43;2.73;;;;;;;;;;5041890;28;20204;-69
2022/01/06 13:09:23;;;;;;;19.20;3.00;;;;;;;;;;5037423;28;20186;-69
2022/01/06 13:11:52;;;;;;;15.67;3.37;;;;;;;;;;5040660;28;20178;-68
2022/01/06 13:14:34;;;;;;;22.57;3.17;;;;;;;;;;5041652;28;20231;-69
2022/01/06 13:17:12;;;;;;;18.97;3.70;;;;;;;;;;5038523;28;20181;-69
2022/01/06 13:20:00;;;;;;;18.83;3.20;;;;;;;;;;5040720;28;20212;-69
2022/01/06 13:25:27;;;;;;;27.83;3.40;;;;;;;;;;5036663;28;20185;-69
2022/01/06 13:27:58;;;;;;;21.47;3.20;;;;;;;;;;5039109;28;20189;-68
2022/01/06 13:30:33;;;;;;;13.17;3.00;;;;;;;;;;5041613;28;20523;-69
2022/01/06 13:32:58;;;;;;;15.90;2.80;;;;;;;;;;5040741;28;20272;-69
2022/01/06 13:35:24;;;;;;;26.60;3.87;;;;;;;;;;5042037;28;20359;-69
2022/01/06 13:37:49;;;;;;;14.63;2.50;;;;;;;;;;5040796;28;20185;-68
2022/01/06 13:40:15;;;;;;;15.60;2.57;;;;;;;;;;5042958;28;20227;-68
2022/01/06 13:42:46;;;;;;;13.77;2.60;;;;;;;;;;5041623;28;20719;-69
2022/01/06 13:45:27;;;;;;;13.53;2.70;;;;;;;;;;5042055;28;20235;-69
2022/01/06 13:53:28;;;;;;;22.47;3.10;;;;;;;;;;5040938;28;20504;-69
2022/01/06 13:55:59;;;;;;;18.30;2.83;;;;;;;;;;5043849;28;20192;-69
2022/01/06 13:58:25;;;;;;;18.17;3.27;;;;;;;;;;5045579;28;20661;-69
2022/01/06 14:00:52;;;;;;;14.40;3.10;;;;;;;;;;5044632;28;20213;-68
2022/01/06 14:03:18;;;;;;;15.10;2.93;;;;;;;;;;5043193;28;20210;-68
2022/01/06 14:05:44;;;;;;;21.07;2.70;;;;;;;;;;5045208;28;20678;-68
2022/01/06 14:08:10;;;;;;;19.30;3.33;;;;;;;;;;5041661;28;20189;-69
2022/01/06 14:10:35;;;;;;;19.53;3.07;;;;;;;;;;5044358;28;20185;-68
2022/01/06 14:13:00;;;;;;;19.07;3.10;;;;;;;;;;5042888;28;20656;-68
2022/01/06 14:15:26;;;;;;;21.13;3.00;;;;;;;;;;5041061;28;20190;-69
2022/01/06 14:17:51;;;;;;;15.00;3.23;;;;;;;;;;5041534;28;20223;-69
2022/01/06 14:20:16;;;;;;;15.17;3.10;;;;;;;;;;5042785;28;20252;-69
2022/01/06 14:22:42;;;;;;;22.13;2.93;;;;;;;;;;5044213;28;20193;-69
2022/01/06 14:25:08;;;;;;;16.07;3.53;;;;;;;;;;5041313;28;20201;-68
2022/01/06 14:27:33;;;;;;;20.90;3.37;;;;;;;;;;5044448;28;20190;-69
2022/01/06 14:29:58;;;;;;;12.63;2.87;;;;;;;;;;5043981;28;20209;-69
2022/01/06 14:32:24;;;;;;;21.97;3.90;;;;;;;;;;5043761;28;20201;-69
2022/01/06 14:34:49;;;;;;;20.77;3.13;;;;;;;;;;5044601;28;20181;-68
2022/01/06 14:37:14;;;;;;;19.10;2.83;;;;;;;;;;5044033;28;20177;-68
2022/01/06 14:39:40;;;;;;;14.47;2.60;;;;;;;;;;5045946;28;20287;-69
2022/01/06 14:42:05;;;;;;;14.30;2.57;;;;;;;;;;5040884;28;20189;-68
2022/01/06 14:44:31;;;;;;;20.43;3.03;;;;;;;;;;5036328;28;20699;-68
2022/01/06 14:46:58;;;;;;;13.30;3.20;;;;;;;;;;5041011;28;20189;-68